Time;durP1;ratioP1;P1;durP2;ratioP2;P2;SDS_P1;SDS_P2;PMS_P1;PMS_P2;Temp;Humidity;BMP_temperature;BMP_pressure;BME280_temperature;BME280_humidity;BME280_pressure;Samples;Min_cycle;Max_cycle;Signal;HPM_P1;HPM_P2
2023/12/03 00:01:14;;;;;;;14.37;9.00;;;;;;;-2.76;100.00;150669.94;5064258;28;20568;-92
2023/12/03 00:03:41;;;;;;;11.77;8.47;;;;;;;-2.79;100.00;150660.97;5072341;28;20935;-91
2023/12/03 00:06:09;;;;;;;15.07;9.23;;;;;;;-2.81;100.00;150657.16;5069250;28;20538;-91
2023/12/03 00:08:36;;;;;;;13.37;8.43;;;;;;;-2.84;100.00;150648.19;5063699;28;20450;-92
2023/12/03 00:11:02;;;;;;;13.63;8.60;;;;;;;-2.81;100.00;150655.88;5072357;28;20460;-91
2023/12/03 00:13:29;;;;;;;16.10;8.40;;;;;;;-2.81;100.00;150657.16;5066165;28;20478;-91
2023/12/03 00:15:55;;;;;;;14.67;9.23;;;;;;;-2.81;100.00;150655.88;5065219;28;20808;-92
2023/12/03 00:18:22;;;;;;;15.63;9.33;;;;;;;-2.81;100.00;150657.16;5072111;28;20456;-92
2023/12/03 00:20:48;;;;;;;14.80;8.20;;;;;;;-2.79;100.00;150660.97;5068121;28;20825;-91
2023/12/03 00:23:16;;;;;;;14.97;9.30;;;;;;;-2.83;100.00;150652.00;5063079;28;20451;-91
2023/12/03 00:25:43;;;;;;;12.10;7.97;;;;;;;-2.80;100.00;150659.69;5052443;28;20673;-92
2023/12/03 00:28:09;;;;;;;12.70;8.90;;;;;;;-2.79;100.00;150662.25;5055920;28;20496;-92
2023/12/03 00:30:36;;;;;;;12.93;9.17;;;;;;;-2.82;100.00;150653.28;5072619;28;20992;-93
2023/12/03 00:33:02;;;;;;;13.93;9.53;;;;;;;-2.81;100.00;150657.16;5072040;28;20459;-91
2023/12/03 00:35:29;;;;;;;15.83;9.17;;;;;;;-2.86;100.00;150644.31;5072030;28;20439;-91
2023/12/03 00:37:55;;;;;;;17.53;9.47;;;;;;;-2.84;100.00;150649.47;5065455;28;20448;-92
2023/12/03 00:40:23;;;;;;;15.97;8.90;;;;;;;-2.91;100.00;150631.53;5066676;28;20863;-93
2023/12/03 00:42:50;;;;;;;15.37;9.33;;;;;;;-2.91;100.00;150631.53;5064896;28;20812;-92
2023/12/03 00:45:17;;;;;;;14.87;9.40;;;;;;;-2.80;100.00;150659.69;5061346;28;20457;-92
2023/12/03 00:47:43;;;;;;;13.40;9.70;;;;;;;-2.79;100.00;150662.25;5058545;28;20440;-92
2023/12/03 00:50:10;;;;;;;11.77;8.40;;;;;;;-2.75;100.00;150671.19;5073419;28;20477;-93
2023/12/03 00:52:36;;;;;;;13.20;9.73;;;;;;;-2.71;100.00;150682.75;5070609;28;20476;-91
2023/12/03 00:55:03;;;;;;;13.27;8.60;;;;;;;-2.74;100.00;150673.78;5069369;28;20446;-92
2023/12/03 00:57:32;;;;;;;13.40;8.80;;;;;;;-2.77;100.00;150667.38;5072017;28;20859;-92
2023/12/03 00:59:58;;;;;;;16.63;9.90;;;;;;;-2.76;100.00;150669.94;5070834;28;20444;-92
2023/12/03 01:02:25;;;;;;;12.80;9.70;;;;;;;-2.75;100.00;150672.47;5070739;28;20468;-91
2023/12/03 01:04:51;;;;;;;12.07;8.80;;;;;;;-2.75;100.00;150671.19;5064657;28;20455;-93
2023/12/03 01:07:18;;;;;;;14.03;9.13;;;;;;;-2.83;100.00;150652.00;5064373;28;21118;-92
2023/12/03 01:09:44;;;;;;;14.97;9.77;;;;;;;-2.82;100.00;150654.56;5065411;28;20463;-91
2023/12/03 01:12:11;;;;;;;17.23;9.77;;;;;;;-2.84;100.00;150649.47;5070354;28;20502;-92
2023/12/03 01:14:39;;;;;;;18.40;10.20;;;;;;;-2.82;100.00;150653.28;5047836;28;20442;-91
2023/12/03 01:17:05;;;;;;;13.17;8.00;;;;;;;-2.78;100.00;150664.78;5062268;28;20433;-92
2023/12/03 01:19:32;;;;;;;19.17;10.53;;;;;;;-2.75;100.00;150672.47;5066175;28;20456;-91
2023/12/03 01:21:58;;;;;;;15.37;9.90;;;;;;;-2.72;100.00;150678.88;5060032;28;20453;-92
2023/12/03 01:24:25;;;;;;;16.47;10.60;;;;;;;-2.72;100.00;150680.16;5064440;28;20454;-92
2023/12/03 01:26:51;;;;;;;16.40;10.67;;;;;;;-2.75;100.00;150671.19;5062069;28;20468;-92
2023/12/03 01:29:18;;;;;;;14.77;10.53;;;;;;;-2.81;100.00;150657.16;5051637;28;20924;-92
2023/12/03 01:31:46;;;;;;;14.93;9.33;;;;;;;-2.75;100.00;150672.47;5049988;28;20452;-92
2023/12/03 01:34:13;;;;;;;17.23;10.60;;;;;;;-2.71;100.00;150682.75;5050101;28;20471;-92
2023/12/03 01:36:39;;;;;;;15.43;9.57;;;;;;;-2.70;100.00;150685.28;5057413;28;20457;-93
2023/12/03 01:39:06;;;;;;;13.60;8.67;;;;;;;-2.73;100.00;150677.63;5051478;28;20437;-92
2023/12/03 01:41:32;;;;;;;17.13;10.30;;;;;;;-2.74;100.00;150675.06;5070773;28;20452;-91
2023/12/03 01:43:59;;;;;;;14.00;9.13;;;;;;;-2.78;100.00;150664.78;5053832;28;20504;-92
2023/12/03 01:46:26;;;;;;;13.03;9.57;;;;;;;-2.78;100.00;150663.56;5061760;28;20463;-92
2023/12/03 01:48:55;;;;;;;15.03;9.57;;;;;;;-2.81;100.00;150657.16;5071446;28;20420;-92
2023/12/03 01:51:21;;;;;;;11.43;8.80;;;;;;;-2.78;100.00;150664.78;5070144;28;20549;-91
2023/12/03 01:53:49;;;;;;;15.80;9.57;;;;;;;-2.75;100.00;150672.47;5069754;28;20519;-92
2023/12/03 01:56:16;;;;;;;16.20;9.60;;;;;;;-2.70;100.00;150685.28;5066291;28;20453;-92
2023/12/03 01:58:43;;;;;;;18.40;9.43;;;;;;;-2.73;100.00;150677.63;5053100;28;20455;-93
2023/12/03 02:01:10;;;;;;;13.77;8.70;;;;;;;-2.66;100.00;150695.53;5064523;28;20828;-92
2023/12/03 02:03:36;;;;;;;12.13;8.20;;;;;;;-2.69;100.00;150687.84;5065217;28;20468;-92
2023/12/03 02:06:05;;;;;;;16.37;9.40;;;;;;;-2.71;100.00;150681.47;5070266;28;20482;-92
2023/12/03 02:08:32;;;;;;;13.47;9.97;;;;;;;-2.74;100.00;150673.78;5070710;28;20458;-93
2023/12/03 02:10:59;;;;;;;14.07;9.30;;;;;;;-2.71;100.00;150682.75;5058569;28;20453;-93
2023/12/03 02:13:26;;;;;;;13.20;9.17;;;;;;;-2.70;100.00;150684.03;5062118;28;20459;-92
2023/12/03 02:15:53;;;;;;;16.00;9.60;;;;;;;-2.69;100.00;150687.84;5050685;28;20451;-93
2023/12/03 02:18:20;;;;;;;11.60;7.90;;;;;;;-2.76;100.00;150669.94;5068927;28;20856;-94
2023/12/03 02:20:46;;;;;;;16.53;9.37;;;;;;;-2.68;100.00;150690.44;5065470;28;20461;-92
2023/12/03 02:23:14;;;;;;;11.50;7.60;;;;;;;-2.66;100.00;150694.25;5059955;28;20432;-92
2023/12/03 02:25:41;;;;;;;12.23;8.73;;;;;;;-2.68;100.00;150690.44;5071007;28;20538;-92
2023/12/03 02:28:08;;;;;;;16.10;9.10;;;;;;;-2.65;100.00;150696.84;5071066;28;20556;-93
2023/12/03 02:30:35;;;;;;;13.80;8.90;;;;;;;-2.70;100.00;150684.03;5063906;28;20478;-91
2023/12/03 02:33:02;;;;;;;15.90;9.80;;;;;;;-2.70;100.00;150685.28;5064637;28;20471;-91
2023/12/03 02:35:29;;;;;;;12.50;8.23;;;;;;;-2.75;100.00;150672.47;5069312;28;20444;-92
2023/12/03 02:37:55;;;;;;;14.57;8.73;;;;;;;-2.81;100.00;150657.16;5053892;28;20438;-92
2023/12/03 02:40:23;;;;;;;13.00;8.70;;;;;;;-2.88;100.00;150639.22;5070769;28;20448;-91
2023/12/03 02:42:50;;;;;;;14.17;8.13;;;;;;;-2.88;100.00;150637.91;5052255;28;20447;-91
2023/12/03 02:45:16;;;;;;;15.30;8.60;;;;;;;-2.86;100.00;150643.06;5068494;28;20922;-92
2023/12/03 02:47:43;;;;;;;13.07;8.37;;;;;;;-2.85;100.00;150646.91;5069617;28;20447;-91
2023/12/03 02:50:10;;;;;;;10.30;7.43;;;;;;;-2.85;100.00;150646.91;5071000;28;20418;-91
2023/12/03 02:52:37;;;;;;;10.20;6.67;;;;;;;-2.86;100.00;150643.06;5056628;28;20448;-91
2023/12/03 02:55:05;;;;;;;12.33;7.07;;;;;;;-2.90;100.00;150634.09;5050472;28;20931;-91
2023/12/03 02:57:32;;;;;;;14.80;8.77;;;;;;;-2.96;100.00;150618.72;5069962;28;20459;-91
2023/12/03 02:59:59;;;;;;;13.20;7.80;;;;;;;-2.92;100.00;150629.00;5072924;28;20458;-93
2023/12/03 03:02:25;;;;;;;12.80;7.60;;;;;;;-2.87;100.00;150640.50;5071703;28;20452;-91
2023/12/03 03:04:52;;;;;;;12.43;7.13;;;;;;;-2.89;100.00;150636.69;5080251;28;20481;-91
2023/12/03 03:07:18;;;;;;;12.60;8.33;;;;;;;-2.92;100.00;150629.00;5063300;28;20539;-92
2023/12/03 03:09:45;;;;;;;15.43;8.20;;;;;;;-2.92;100.00;150627.69;5056195;28;20458;-91
2023/12/03 03:12:11;;;;;;;11.60;7.13;;;;;;;-2.92;100.00;150629.00;5078456;28;20509;-91
2023/12/03 03:14:39;;;;;;;12.67;7.37;;;;;;;-2.93;100.00;150626.41;5088515;28;20456;-92
2023/12/03 03:17:06;;;;;;;13.90;9.13;;;;;;;-2.99;100.00;150611.03;5089398;28;20455;-92
2023/12/03 03:19:32;;;;;;;13.73;7.33;;;;;;;-3.02;100.00;150603.41;5065214;28;20455;-91
2023/12/03 03:21:59;;;;;;;12.83;8.10;;;;;;;-3.01;100.00;150604.66;5068539;28;20544;-92
2023/12/03 03:24:25;;;;;;;11.87;7.50;;;;;;;-2.96;100.00;150618.72;5054355;28;20455;-94
2023/12/03 03:26:52;;;;;;;12.10;7.97;;;;;;;-2.95;100.00;150621.31;5059250;28;20467;-91
2023/12/03 03:29:19;;;;;;;14.20;8.67;;;;;;;-2.97;100.00;150616.19;5064391;28;20538;-91
2023/12/03 03:31:47;;;;;;;12.00;7.30;;;;;;;-2.93;100.00;150626.41;5063394;28;20507;-92
2023/12/03 03:34:13;;;;;;;14.40;8.60;;;;;;;-2.98;100.00;150613.63;5065261;28;20469;-92
2023/12/03 03:36:40;;;;;;;12.83;7.27;;;;;;;-2.99;100.00;150611.03;5073570;28;20440;-91
2023/12/03 03:39:06;;;;;;;10.90;7.17;;;;;;;-3.03;100.00;150599.53;5071651;28;20444;-91
2023/12/03 03:41:33;;;;;;;16.83;7.93;;;;;;;-3.01;100.00;150605.94;5066961;28;20457;-91
2023/12/03 03:43:59;;;;;;;14.17;7.83;;;;;;;-2.99;100.00;150609.81;5069207;28;20434;-91
2023/12/03 03:46:26;;;;;;;9.50;6.77;;;;;;;-3.00;100.00;150608.50;5061559;28;20465;-91
2023/12/03 03:48:54;;;;;;;12.97;8.20;;;;;;;-2.98;100.00;150612.34;5068786;28;20431;-91
2023/12/03 03:51:20;;;;;;;15.50;7.90;;;;;;;-2.98;100.00;150613.63;5054737;28;20445;-91
2023/12/03 03:53:47;;;;;;;11.10;7.43;;;;;;;-2.99;100.00;150611.03;5065102;28;20541;-91
2023/12/03 03:56:16;;;;;;;13.00;7.43;;;;;;;-2.99;100.00;150611.03;5055335;28;20522;-93
2023/12/03 03:58:43;;;;;;;12.03;7.03;;;;;;;-2.97;100.00;150614.91;5054888;28;20545;-91
2023/12/03 04:01:10;;;;;;;12.50;7.70;;;;;;;-3.05;100.00;150595.72;5065784;28;20545;-91
2023/12/03 04:03:37;;;;;;;11.03;7.27;;;;;;;-3.08;100.00;150589.31;5073149;28;20559;-91
2023/12/03 04:06:06;;;;;;;11.07;7.20;;;;;;;-2.93;100.00;150626.41;5057430;28;20481;-91
2023/12/03 04:08:32;;;;;;;12.60;8.10;;;;;;;-3.02;100.00;150603.41;5040325;28;20406;-93
2023/12/03 04:11:02;;;;;;;14.77;9.07;;;;;;;-3.10;100.00;150582.94;5063625;28;20830;-91
2023/12/03 04:13:29;;;;;;;12.80;7.67;;;;;;;-3.11;100.00;150580.34;5072438;28;20473;-92
2023/12/03 04:15:55;;;;;;;12.07;7.07;;;;;;;-3.12;100.00;150579.06;5067308;28;20497;-92
2023/12/03 04:18:22;;;;;;;10.47;6.43;;;;;;;-3.16;100.00;150567.56;5070697;28;20440;-91
2023/12/03 04:20:48;;;;;;;11.53;7.43;;;;;;;-3.22;100.00;150553.50;5062996;28;20458;-91
2023/12/03 04:23:16;;;;;;;12.27;7.20;;;;;;;-3.32;100.00;150526.63;5053829;28;20481;-92
2023/12/03 04:25:43;;;;;;;12.83;9.10;;;;;;;-3.36;100.00;150516.41;5067409;28;20559;-92
2023/12/03 04:28:10;;;;;;;13.63;7.20;;;;;;;-3.31;100.00;150529.19;5063518;28;20439;-91
2023/12/03 04:30:36;;;;;;;14.20;10.00;;;;;;;-3.27;100.00;150539.41;5060478;28;21013;-92
2023/12/03 04:33:03;;;;;;;12.30;7.77;;;;;;;-3.34;100.00;150521.50;5065660;28;20462;-92
2023/12/03 04:35:29;;;;;;;13.40;8.30;;;;;;;-3.42;100.00;150501.03;5068951;28;20832;-92
2023/12/03 04:37:56;;;;;;;13.60;8.13;;;;;;;-3.54;100.00;150471.59;5062274;28;20454;-92
2023/12/03 04:40:23;;;;;;;10.70;7.50;;;;;;;-3.68;100.00;150434.53;5066719;28;20511;-91
2023/12/03 04:42:50;;;;;;;12.40;7.00;;;;;;;-3.77;100.00;150414.06;5070358;28;20417;-91
2023/12/03 04:45:17;;;;;;;13.00;6.90;;;;;;;-3.88;100.00;150384.66;5069699;28;20504;-91
2023/12/03 04:47:43;;;;;;;10.87;6.63;;;;;;;-3.98;100.00;150359.09;5068634;28;20569;-91
2023/12/03 04:50:10;;;;;;;10.73;7.27;;;;;;;-3.96;100.00;150365.47;5069263;28;20416;-91
2023/12/03 04:52:36;;;;;;;10.97;7.93;;;;;;;-4.11;100.00;150327.13;5055694;28;20484;-91
2023/12/03 04:55:03;;;;;;;12.43;7.47;;;;;;;-4.17;100.00;150310.50;5069862;28;21284;-91
2023/12/03 04:57:31;;;;;;;12.97;6.53;;;;;;;-4.28;100.00;150283.66;5087366;28;20499;-90
2023/12/03 04:59:57;;;;;;;13.73;8.60;;;;;;;-4.40;100.00;150254.28;5071302;28;20500;-91
2023/12/03 05:02:24;;;;;;;11.53;6.47;;;;;;;-4.49;100.00;150229.97;5070518;28;21025;-90
2023/12/03 05:04:50;;;;;;;12.90;8.20;;;;;;;-4.58;100.00;150207.00;5067208;28;20484;-91
2023/12/03 05:07:17;;;;;;;10.20;7.20;;;;;;;-4.63;100.00;150194.22;5060523;28;20490;-91
2023/12/03 05:09:43;;;;;;;11.63;7.77;;;;;;;-4.67;100.00;150183.97;5051359;28;20811;-90
2023/12/03 05:12:10;;;;;;;13.17;7.30;;;;;;;-4.76;100.00;150160.97;5057975;28;20455;-90
2023/12/03 05:14:38;;;;;;;12.73;8.47;;;;;;;-4.81;100.00;150148.19;5070245;28;20519;-90
2023/12/03 05:17:05;;;;;;;12.17;7.57;;;;;;;-4.87;100.00;150134.13;5040439;28;20429;-90
2023/12/03 05:19:32;;;;;;;11.40;7.50;;;;;;;-4.96;100.00;150112.47;5074729;28;20490;-90
2023/12/03 05:21:58;;;;;;;11.60;7.37;;;;;;;-5.00;100.00;150102.22;5062972;28;20517;-90
2023/12/03 05:24:25;;;;;;;12.97;7.50;;;;;;;-5.09;100.00;150079.25;5050456;28;20435;-91
2023/12/03 05:26:51;;;;;;;13.30;7.20;;;;;;;-5.11;100.00;150072.88;5062319;28;20442;-91
2023/12/03 05:29:21;;;;;;;13.13;8.13;;;;;;;-5.14;100.00;150066.50;5057159;28;20476;-90
2023/12/03 05:31:49;;;;;;;12.40;8.33;;;;;;;-5.14;100.00;150066.50;5062579;28;20450;-90
2023/12/03 05:34:16;;;;;;;12.53;7.10;;;;;;;-5.17;100.00;150057.53;5063840;28;20453;-91
2023/12/03 05:36:43;;;;;;;12.40;6.90;;;;;;;-5.22;100.00;150046.06;5067442;28;20432;-91
2023/12/03 05:39:09;;;;;;;12.83;8.13;;;;;;;-5.26;100.00;150035.81;5076064;28;20418;-90
2023/12/03 05:41:38;;;;;;;13.30;7.77;;;;;;;-5.29;100.00;150028.13;5040832;28;20462;-90
2023/12/03 05:44:05;;;;;;;18.07;10.23;;;;;;;-5.32;100.00;150019.22;5058630;28;20419;-92
2023/12/03 05:46:32;;;;;;;16.40;8.07;;;;;;;-5.35;100.00;150011.56;5061590;28;20440;-90
2023/12/03 05:49:00;;;;;;;12.77;7.33;;;;;;;-5.38;100.00;150005.19;5058000;28;20428;-90
2023/12/03 05:51:27;;;;;;;11.90;8.40;;;;;;;-5.40;100.00;150000.03;5053345;28;20476;-90
2023/12/03 05:53:53;;;;;;;11.60;7.90;;;;;;;-5.42;100.00;149994.94;5035689;28;20744;-90
2023/12/03 05:56:20;;;;;;;11.37;7.50;;;;;;;-5.43;100.00;149992.44;5056356;28;20426;-89
2023/12/03 05:58:46;;;;;;;15.13;8.80;;;;;;;-5.40;100.00;150000.03;5061819;28;20417;-89
2023/12/03 06:01:21;;;;;;;14.20;9.37;;;;;;;-5.40;100.00;150000.03;5058663;28;20470;-90
2023/12/03 06:03:48;;;;;;;12.73;8.47;;;;;;;-5.33;100.00;150017.94;5067639;28;20421;-90
2023/12/03 06:06:16;;;;;;;15.20;9.40;;;;;;;-5.16;100.00;150061.34;5059180;28;20540;-90
2023/12/03 06:08:42;;;;;;;15.10;8.40;;;;;;;-5.10;100.00;150075.41;5061689;28;20851;-90
2023/12/03 06:11:09;;;;;;;15.10;9.10;;;;;;;-5.13;100.00;150069.00;5059892;28;20483;-90
2023/12/03 06:13:35;;;;;;;12.73;7.50;;;;;;;-5.17;100.00;150058.81;5053517;28;20466;-90
2023/12/03 06:16:02;;;;;;;15.00;8.57;;;;;;;-5.21;100.00;150048.56;5061645;28;20433;-90
2023/12/03 06:18:29;;;;;;;13.40;8.43;;;;;;;-5.15;100.00;150062.63;5060545;28;20450;-90
2023/12/03 06:20:56;;;;;;;17.67;9.10;;;;;;;-5.18;100.00;150056.25;5062779;28;20454;-91
2023/12/03 06:23:24;;;;;;;15.33;9.60;;;;;;;-5.21;100.00;150047.28;5070131;28;21020;-90
2023/12/03 06:25:52;;;;;;;16.37;9.67;;;;;;;-5.28;100.00;150030.72;5062026;28;20461;-92
2023/12/03 06:28:19;;;;;;;12.73;8.03;;;;;;;-5.33;100.00;150016.66;5060284;28;20441;-91
2023/12/03 06:30:47;;;;;;;14.60;8.70;;;;;;;-5.12;100.00;150071.59;5073652;28;20433;-89
2023/12/03 06:33:14;;;;;;;18.20;9.13;;;;;;;-5.08;100.00;150081.78;5085673;28;20459;-91
2023/12/03 06:35:41;;;;;;;14.70;8.63;;;;;;;-5.14;100.00;150066.50;5065304;28;20561;-92
2023/12/03 06:38:08;;;;;;;14.07;7.63;;;;;;;-5.18;100.00;150056.25;5069332;28;20561;-90
2023/12/03 06:40:36;;;;;;;12.43;9.27;;;;;;;-5.05;100.00;150088.16;5070011;28;20436;-89
2023/12/03 06:43:02;;;;;;;18.43;8.73;;;;;;;-5.00;100.00;150102.22;5067331;28;20446;-89
2023/12/03 06:45:29;;;;;;;12.93;8.40;;;;;;;-5.02;100.00;150095.84;5069132;28;20420;-89
2023/12/03 06:47:55;;;;;;;13.70;8.50;;;;;;;-5.09;100.00;150079.25;5063552;28;20536;-90
2023/12/03 06:50:22;;;;;;;12.40;8.93;;;;;;;-5.09;100.00;150079.25;5063813;28;20435;-90
2023/12/03 06:52:49;;;;;;;15.73;9.67;;;;;;;-5.14;100.00;150065.19;5062184;28;20433;-89
2023/12/03 06:55:15;;;;;;;13.87;9.30;;;;;;;-5.24;100.00;150039.66;5063886;28;20543;-89
2023/12/03 06:57:43;;;;;;;16.03;10.50;;;;;;;-5.21;100.00;150047.28;5067179;28;20421;-89
2023/12/03 07:00:11;;;;;;;14.53;10.10;;;;;;;-5.24;100.00;150040.91;5069083;28;20581;-90
2023/12/03 07:02:37;;;;;;;15.43;10.07;;;;;;;-5.29;100.00;150028.13;5069487;28;20456;-91
2023/12/03 07:05:05;;;;;;;16.80;9.87;;;;;;;-5.24;100.00;150040.91;5053051;28;20459;-90
2023/12/03 07:07:31;;;;;;;17.63;8.53;;;;;;;-5.11;100.00;150074.09;5053169;28;20462;-90
2023/12/03 07:10:00;;;;;;;14.73;9.77;;;;;;;-5.15;100.00;150063.91;5071203;28;20776;-90
2023/12/03 07:12:27;;;;;;;17.47;9.90;;;;;;;-5.19;100.00;150053.66;5063915;28;20455;-89
2023/12/03 07:14:54;;;;;;;15.57;10.30;;;;;;;-5.10;100.00;150076.69;5061867;28;20471;-90
2023/12/03 07:17:23;;;;;;;14.17;9.90;;;;;;;-5.10;100.00;150075.41;5061829;28;20493;-88
2023/12/03 07:19:53;;;;;;;15.30;8.73;;;;;;;-5.11;100.00;150072.88;5065446;28;20450;-91
2023/12/03 07:22:22;;;;;;;12.83;9.00;;;;;;;-4.97;100.00;150109.88;5071294;28;20787;-90
2023/12/03 07:24:49;;;;;;;18.07;9.67;;;;;;;-4.88;100.00;150131.63;5064416;28;20432;-91
2023/12/03 07:27:17;;;;;;;11.73;9.77;;;;;;;-4.78;100.00;150155.88;5069676;28;20467;-91
2023/12/03 07:29:44;;;;;;;11.40;8.20;;;;;;;-4.80;100.00;150150.78;5070201;28;20429;-90
2023/12/03 07:32:12;;;;;;;12.37;7.20;;;;;;;-4.72;100.00;150171.22;5063528;28;20449;-89
2023/12/03 07:34:39;;;;;;;20.30;10.23;;;;;;;-4.65;100.00;150189.09;5064863;28;20460;-90
2023/12/03 07:37:05;;;;;;;13.53;10.00;;;;;;;-4.53;100.00;150219.78;5061785;28;20421;-89
2023/12/03 07:39:32;;;;;;;16.63;10.90;;;;;;;-4.44;100.00;150242.75;5058986;28;20487;-91
2023/12/03 07:41:58;;;;;;;11.70;9.60;;;;;;;-4.39;100.00;150255.53;5067123;28;20433;-90
2023/12/03 07:44:28;;;;;;;14.40;9.20;;;;;;;-4.39;100.00;150256.81;5063498;28;20425;-90
2023/12/03 07:46:54;;;;;;;16.33;10.13;;;;;;;-4.33;100.00;150270.88;5065519;28;20464;-90
2023/12/03 07:49:22;;;;;;;16.40;10.60;;;;;;;-4.23;100.00;150296.44;5066706;28;20461;-89
2023/12/03 07:51:49;;;;;;;13.77;9.53;;;;;;;-4.15;100.00;150315.59;5075636;28;20444;-89
2023/12/03 07:54:16;;;;;;;17.07;9.97;;;;;;;-4.20;100.00;150304.09;5061244;28;20464;-88
2023/12/03 07:56:43;;;;;;;16.37;11.13;;;;;;;-4.15;100.00;150316.88;5075913;28;20493;-88
2023/12/03 07:59:11;;;;;;;18.23;10.60;;;;;;;-4.14;100.00;150319.47;5076143;28;20453;-88
2023/12/03 08:01:38;;;;;;;14.33;9.17;;;;;;;-4.14;100.00;150318.16;5059695;28;20627;-88
2023/12/03 08:04:05;;;;;;;15.00;10.93;;;;;;;-4.10;100.00;150328.44;5076725;28;20942;-89
2023/12/03 08:06:33;;;;;;;14.30;9.70;;;;;;;-4.12;100.00;150323.28;5059249;28;20508;-89
2023/12/03 08:09:03;;;;;;;15.37;9.70;;;;;;;-4.02;100.00;150350.13;5064091;28;20452;-88
2023/12/03 08:11:31;;;;;;;14.97;9.00;;;;;;;-3.97;100.00;150362.91;5057778;28;20445;-89
2023/12/03 08:13:58;;;;;;;17.57;12.40;;;;;;;-3.92;100.00;150374.44;5061604;28;20429;-89
2023/12/03 08:16:26;;;;;;;19.10;10.53;;;;;;;-3.88;100.00;150384.66;5053145;28;20445;-88
2023/12/03 08:18:52;;;;;;;18.73;11.30;;;;;;;-3.85;100.00;150392.31;5038329;28;20426;-86
2023/12/03 08:21:19;;;;;;;19.87;11.10;;;;;;;-3.73;100.00;150423.00;5042880;28;20463;-86
2023/12/03 08:23:47;;;;;;;17.57;10.10;;;;;;;-3.60;100.00;150455.00;5072739;28;20511;-88
2023/12/03 08:26:14;;;;;;;18.23;12.00;;;;;;;-3.58;100.00;150461.41;5074685;28;20493;-87
2023/12/03 08:28:40;;;;;;;17.60;12.70;;;;;;;-3.48;100.00;150485.69;5059286;28;21231;-87
2023/12/03 08:31:08;;;;;;;22.70;13.20;;;;;;;-3.45;100.00;150494.66;5058135;28;20455;-87
2023/12/03 08:33:34;;;;;;;16.87;11.00;;;;;;;-3.38;100.00;150512.53;5058052;28;20428;-87
2023/12/03 08:36:01;;;;;;;17.30;11.50;;;;;;;-3.33;100.00;150524.03;5056126;28;20624;-88
2023/12/03 08:38:27;;;;;;;19.47;10.90;;;;;;;-3.32;100.00;150526.63;5064069;28;20451;-88
2023/12/03 08:40:55;;;;;;;22.53;11.03;;;;;;;-3.30;100.00;150533.00;5059605;28;20486;-89
2023/12/03 08:43:22;;;;;;;19.10;11.03;;;;;;;-3.26;100.00;150541.97;5060461;28;20799;-88
2023/12/03 08:45:49;;;;;;;16.60;10.97;;;;;;;-3.25;100.00;150545.81;5061158;28;20481;-89
2023/12/03 08:48:15;;;;;;;17.97;10.77;;;;;;;-3.26;100.00;150541.97;5059411;28;20534;-89
2023/12/03 08:50:42;;;;;;;21.67;13.10;;;;;;;-3.22;100.00;150552.19;5058369;28;20537;-89
2023/12/03 08:53:08;;;;;;;19.37;11.37;;;;;;;-3.21;100.00;150556.06;5056629;28;20504;-89
2023/12/03 08:55:35;;;;;;;15.30;10.27;;;;;;;-3.23;100.00;150549.66;5057871;28;20484;-89
2023/12/03 08:58:03;;;;;;;24.60;11.37;;;;;;;-3.22;100.00;150552.19;5057026;28;20451;-89
2023/12/03 09:00:32;;;;;;;20.50;11.70;;;;;;;-3.21;100.00;150554.78;5080630;28;21363;-89
2023/12/03 09:02:58;;;;;;;17.77;11.63;;;;;;;-3.22;100.00;150553.50;5067464;28;21120;-89
2023/12/03 09:05:25;;;;;;;17.50;11.33;;;;;;;-3.21;100.00;150556.06;5065688;28;20820;-90
2023/12/03 09:07:51;;;;;;;20.00;10.50;;;;;;;-3.20;100.00;150557.31;5059565;28;20509;-87
2023/12/03 09:10:18;;;;;;;17.63;10.90;;;;;;;-3.17;100.00;150565.00;5065181;28;20447;-89
2023/12/03 09:12:44;;;;;;;18.67;11.47;;;;;;;-3.09;100.00;150586.75;5079333;28;20474;-88
2023/12/03 09:15:13;;;;;;;17.00;11.20;;;;;;;-3.06;100.00;150593.16;5055798;28;20818;-89
2023/12/03 09:17:39;;;;;;;17.23;11.33;;;;;;;-3.04;100.00;150598.25;5058671;28;20457;-89
2023/12/03 09:20:08;;;;;;;17.07;11.27;;;;;;;-3.04;100.00;150598.25;5059585;28;20552;-89
2023/12/03 09:22:35;;;;;;;19.20;10.20;;;;;;;-3.03;100.00;150599.53;5062429;28;20454;-89
2023/12/03 09:25:01;;;;;;;15.30;10.30;;;;;;;-3.03;100.00;150599.53;5058276;28;20465;-89
2023/12/03 09:27:28;;;;;;;20.20;11.27;;;;;;;-3.00;100.00;150608.50;5057085;28;20863;-89
2023/12/03 09:29:54;;;;;;;16.80;10.37;;;;;;;-2.99;100.00;150611.03;5056509;28;20447;-90
2023/12/03 09:32:22;;;;;;;16.77;9.50;;;;;;;-2.97;100.00;150616.19;5059965;28;20493;-88
2023/12/03 09:34:49;;;;;;;16.40;10.37;;;;;;;-2.96;100.00;150618.72;5057060;28;20475;-89
2023/12/03 09:37:16;;;;;;;23.97;12.67;;;;;;;-2.94;100.00;150623.88;5060008;28;20470;-91
2023/12/03 09:39:42;;;;;;;17.40;10.73;;;;;;;-2.93;100.00;150625.13;5042104;28;20475;-90
2023/12/03 09:42:11;;;;;;;18.20;10.37;;;;;;;-2.97;100.00;150616.19;5057381;28;20480;-89
2023/12/03 09:44:40;;;;;;;17.67;11.77;;;;;;;-2.98;100.00;150613.63;5060074;28;20852;-90
2023/12/03 09:47:07;;;;;;;15.00;9.80;;;;;;;-3.01;100.00;150604.66;5053422;28;20446;-89
2023/12/03 09:49:38;;;;;;;14.83;9.80;;;;;;;-3.01;100.00;150604.66;5057580;28;20513;-89
2023/12/03 09:52:07;;;;;;;14.50;10.60;;;;;;;-3.00;100.00;150608.50;5057269;28;20443;-88
2023/12/03 09:54:34;;;;;;;14.27;9.30;;;;;;;-2.94;100.00;150623.88;5056015;28;20458;-89
2023/12/03 09:57:01;;;;;;;17.53;9.60;;;;;;;-2.93;100.00;150626.41;5057360;28;21876;-90
2023/12/03 09:59:28;;;;;;;15.73;8.70;;;;;;;-2.93;100.00;150625.13;5059216;28;20925;-89
2023/12/03 10:01:56;;;;;;;17.67;10.97;;;;;;;-2.86;100.00;150643.06;5058255;28;20520;-90
2023/12/03 10:04:22;;;;;;;15.33;9.77;;;;;;;-2.88;100.00;150639.22;5059145;28;20497;-90
2023/12/03 10:06:53;;;;;;;16.90;11.47;;;;;;;-2.90;100.00;150632.81;5062330;28;20491;-91
2023/12/03 10:09:23;;;;;;;14.67;9.70;;;;;;;-2.88;100.00;150639.22;5065606;28;20815;-91
2023/12/03 10:11:54;;;;;;;16.33;10.70;;;;;;;-2.83;100.00;150650.75;5060593;28;20464;-90
2023/12/03 10:14:21;;;;;;;20.43;11.20;;;;;;;-2.81;100.00;150657.16;5059605;28;20965;-91
2023/12/03 10:16:50;;;;;;;17.07;10.87;;;;;;;-2.79;100.00;150660.97;5060217;28;20488;-91
2023/12/03 10:19:23;;;;;;;18.83;11.30;;;;;;;-2.78;100.00;150664.78;5066061;28;20478;-92
2023/12/03 10:21:52;;;;;;;16.70;10.93;;;;;;;-2.77;100.00;150667.38;5063800;28;20456;-92
2023/12/03 10:24:19;;;;;;;17.27;10.00;;;;;;;-2.79;100.00;150660.97;5067294;28;20918;-93
2023/12/03 10:26:50;;;;;;;18.47;11.23;;;;;;;-2.73;100.00;150677.63;5066237;28;20464;-92
2023/12/03 10:29:19;;;;;;;16.53;11.30;;;;;;;-2.70;100.00;150684.03;5067243;28;20460;-91
2023/12/03 10:31:46;;;;;;;16.13;11.57;;;;;;;-2.68;100.00;150690.44;5066408;28;20452;-91
2023/12/03 10:34:13;;;;;;;16.17;11.10;;;;;;;-2.64;100.00;150700.66;5066420;28;20531;-91
2023/12/03 10:36:42;;;;;;;19.20;11.07;;;;;;;-2.60;100.00;150710.91;5065919;28;20491;-92
2023/12/03 10:39:12;;;;;;;15.83;10.03;;;;;;;-2.55;100.00;150723.72;5066452;28;20457;-91
2023/12/03 10:41:49;;;;;;;17.67;10.40;;;;;;;-2.51;100.00;150732.66;5059419;28;20438;-91
2023/12/03 10:44:21;;;;;;;13.40;9.93;;;;;;;-2.48;100.00;150741.63;5060924;28;21054;-91
2023/12/03 10:46:48;;;;;;;16.43;12.20;;;;;;;-2.49;100.00;150739.03;5065291;28;20461;-92
2023/12/03 10:49:15;;;;;;;19.20;12.10;;;;;;;-2.49;100.00;150739.03;5058606;28;20468;-93
2023/12/03 10:51:43;;;;;;;17.73;11.67;;;;;;;-2.44;100.00;150749.31;5061783;28;20453;-90
2023/12/03 10:54:11;;;;;;;20.27;11.23;;;;;;;-2.44;100.00;150750.59;5058444;28;20449;-91
2023/12/03 10:56:38;;;;;;;17.67;11.23;;;;;;;-2.44;100.00;150749.31;5065763;28;20488;-91
2023/12/03 10:59:09;;;;;;;16.67;10.57;;;;;;;-2.48;100.00;150741.63;5062642;28;20481;-91
2023/12/03 11:01:39;;;;;;;19.17;11.93;;;;;;;-2.49;100.00;150739.03;5065980;28;20534;-90
2023/12/03 11:04:11;;;;;;;13.93;9.53;;;;;;;-2.49;100.00;150739.03;5065352;28;20452;-92
2023/12/03 11:06:39;;;;;;;15.97;10.37;;;;;;;-2.53;100.00;150728.81;5070326;28;20488;-92